sensor_id;sensor_type;location;lat;lon;timestamp;pressure;altitude;pressure_sealevel;temperature;humidity
30819;BME280;17546;42.674;23.284;2022-09-09T00:01:59;94962.03;;;27.05;41.66
30819;BME280;17546;42.674;23.284;2022-09-09T00:06:46;94963.38;;;27.13;41.67
30819;BME280;17546;42.674;23.284;2022-09-09T00:09:19;94963.97;;;27.12;41.64
30819;BME280;17546;42.674;23.284;2022-09-09T00:11:52;94958.47;;;27.04;41.76
30819;BME280;17546;42.674;23.284;2022-09-09T00:16:55;94958.16;;;27.10;41.45
30819;BME280;17546;42.674;23.284;2022-09-09T00:19:35;94953.66;;;27.07;41.43
30819;BME280;17546;42.674;23.284;2022-09-09T00:22:18;94947.88;;;26.85;42.18
30819;BME280;17546;42.674;23.284;2022-09-09T00:24:50;94941.25;;;27.02;41.47
30819;BME280;17546;42.674;23.284;2022-09-09T00:27:25;94933.66;;;26.95;41.76
30819;BME280;17546;42.674;23.284;2022-09-09T00:32:39;94933.06;;;26.96;42.33
30819;BME280;17546;42.674;23.284;2022-09-09T00:35:22;94925.09;;;27.05;41.87
30819;BME280;17546;42.674;23.284;2022-09-09T00:37:53;94925.88;;;26.95;42.08
30819;BME280;17546;42.674;23.284;2022-09-09T00:40:35;94922.94;;;26.84;42.33
30819;BME280;17546;42.674;23.284;2022-09-09T00:43:26;94914.28;;;26.72;42.50
30819;BME280;17546;42.674;23.284;2022-09-09T00:52:13;94923.97;;;26.88;41.92
30819;BME280;17546;42.674;23.284;2022-09-09T00:56:43;94916.38;;;26.81;42.33
30819;BME280;17546;42.674;23.284;2022-09-09T01:01:53;94921.59;;;26.75;42.31
30819;BME280;17546;42.674;23.284;2022-09-09T01:04:29;94926.06;;;26.78;42.39
30819;BME280;17546;42.674;23.284;2022-09-09T01:07:16;94927.09;;;26.83;42.52
30819;BME280;17546;42.674;23.284;2022-09-09T01:09:54;94926.56;;;26.74;42.26
30819;BME280;17546;42.674;23.284;2022-09-09T01:15:12;94929.06;;;26.80;42.21
30819;BME280;17546;42.674;23.284;2022-09-09T01:20:14;94928.81;;;26.66;42.75
30819;BME280;17546;42.674;23.284;2022-09-09T01:28:13;94918.19;;;26.47;43.00
30819;BME280;17546;42.674;23.284;2022-09-09T01:30:41;94915.81;;;26.44;43.07
30819;BME280;17546;42.674;23.284;2022-09-09T01:33:13;94920.28;;;26.56;42.88
30819;BME280;17546;42.674;23.284;2022-09-09T01:35:49;94926.09;;;26.49;42.81
30819;BME280;17546;42.674;23.284;2022-09-09T01:38:19;94932.41;;;26.37;43.26
30819;BME280;17546;42.674;23.284;2022-09-09T01:40:45;94930.47;;;26.30;43.25
30819;BME280;17546;42.674;23.284;2022-09-09T01:43:11;94929.25;;;26.33;43.11
30819;BME280;17546;42.674;23.284;2022-09-09T01:45:38;94930.59;;;26.32;42.76
30819;BME280;17546;42.674;23.284;2022-09-09T01:48:04;94933.31;;;26.30;42.85
30819;BME280;17546;42.674;23.284;2022-09-09T01:50:29;94939.59;;;26.29;42.88
30819;BME280;17546;42.674;23.284;2022-09-09T01:52:58;94948.25;;;26.31;42.73
30819;BME280;17546;42.674;23.284;2022-09-09T01:55:29;94943.91;;;26.30;42.48
30819;BME280;17546;42.674;23.284;2022-09-09T02:00:29;94940.47;;;26.12;42.87
30819;BME280;17546;42.674;23.284;2022-09-09T02:03:20;94932.56;;;26.20;42.89
30819;BME280;17546;42.674;23.284;2022-09-09T02:08:52;94939.28;;;26.05;43.28
30819;BME280;17546;42.674;23.284;2022-09-09T02:11:19;94935.09;;;26.06;43.15
30819;BME280;17546;42.674;23.284;2022-09-09T02:13:48;94923.47;;;26.22;42.83
30819;BME280;17546;42.674;23.284;2022-09-09T02:16:26;94914.03;;;26.19;42.67
30819;BME280;17546;42.674;23.284;2022-09-09T02:21:24;94918.97;;;26.18;42.77
30819;BME280;17546;42.674;23.284;2022-09-09T02:23:54;94915.66;;;26.12;42.83
30819;BME280;17546;42.674;23.284;2022-09-09T02:26:21;94920.78;;;26.24;42.67
30819;BME280;17546;42.674;23.284;2022-09-09T02:28:49;94927.03;;;26.22;42.74
30819;BME280;17546;42.674;23.284;2022-09-09T02:31:18;94929.88;;;26.22;42.91
30819;BME280;17546;42.674;23.284;2022-09-09T02:33:49;94924.34;;;26.14;42.95
30819;BME280;17546;42.674;23.284;2022-09-09T02:36:20;94932.13;;;26.24;42.39
30819;BME280;17546;42.674;23.284;2022-09-09T02:38:48;94939.13;;;26.13;42.34
30819;BME280;17546;42.674;23.284;2022-09-09T02:41:20;94943.31;;;26.22;42.42
30819;BME280;17546;42.674;23.284;2022-09-09T02:43:48;94943.16;;;26.00;42.49
30819;BME280;17546;42.674;23.284;2022-09-09T02:48:58;94943.41;;;25.85;42.93
30819;BME280;17546;42.674;23.284;2022-09-09T02:56:42;94940.31;;;25.90;42.90
30819;BME280;17546;42.674;23.284;2022-09-09T02:59:10;94939.41;;;25.88;43.08
30819;BME280;17546;42.674;23.284;2022-09-09T03:01:36;94943.28;;;25.92;42.81
30819;BME280;17546;42.674;23.284;2022-09-09T03:04:03;94942.69;;;25.84;42.90
30819;BME280;17546;42.674;23.284;2022-09-09T03:06:30;94944.66;;;26.01;42.67
30819;BME280;17546;42.674;23.284;2022-09-09T03:08:56;94942.84;;;25.96;42.77
30819;BME280;17546;42.674;23.284;2022-09-09T03:11:22;94940.63;;;26.04;42.56
30819;BME280;17546;42.674;23.284;2022-09-09T03:13:47;94946.91;;;26.03;42.42
30819;BME280;17546;42.674;23.284;2022-09-09T03:16:14;94938.22;;;25.91;42.48
30819;BME280;17546;42.674;23.284;2022-09-09T03:18:40;94951.50;;;25.88;42.83
30819;BME280;17546;42.674;23.284;2022-09-09T03:21:05;94943.75;;;25.98;42.57
30819;BME280;17546;42.674;23.284;2022-09-09T03:23:32;94935.69;;;26.05;42.45
30819;BME280;17546;42.674;23.284;2022-09-09T03:25:57;94942.25;;;26.07;42.20
30819;BME280;17546;42.674;23.284;2022-09-09T03:28:23;94941.22;;;25.93;42.50
30819;BME280;17546;42.674;23.284;2022-09-09T03:30:58;94934.94;;;25.94;42.41
30819;BME280;17546;42.674;23.284;2022-09-09T03:33:24;94941.31;;;25.75;42.75
30819;BME280;17546;42.674;23.284;2022-09-09T03:35:49;94938.63;;;25.77;42.99
30819;BME280;17546;42.674;23.284;2022-09-09T03:38:15;94940.00;;;25.86;43.12
30819;BME280;17546;42.674;23.284;2022-09-09T03:40:49;94936.13;;;25.91;42.65
30819;BME280;17546;42.674;23.284;2022-09-09T03:43:14;94936.13;;;25.91;42.85
30819;BME280;17546;42.674;23.284;2022-09-09T03:45:45;94928.81;;;25.88;42.68
30819;BME280;17546;42.674;23.284;2022-09-09T03:48:12;94930.41;;;25.72;42.96
30819;BME280;17546;42.674;23.284;2022-09-09T03:50:38;94937.16;;;25.86;42.95
30819;BME280;17546;42.674;23.284;2022-09-09T03:53:03;94951.16;;;25.74;43.31
30819;BME280;17546;42.674;23.284;2022-09-09T03:55:31;94945.94;;;25.81;42.96
30819;BME280;17546;42.674;23.284;2022-09-09T03:57:57;94936.38;;;25.76;43.24
30819;BME280;17546;42.674;23.284;2022-09-09T04:00:23;94945.19;;;25.80;42.82
30819;BME280;17546;42.674;23.284;2022-09-09T04:02:48;94948.94;;;25.83;42.98
30819;BME280;17546;42.674;23.284;2022-09-09T04:05:14;94947.59;;;25.84;42.97
30819;BME280;17546;42.674;23.284;2022-09-09T04:07:40;94947.91;;;25.88;42.65
30819;BME280;17546;42.674;23.284;2022-09-09T04:10:06;94950.91;;;25.90;42.91
30819;BME280;17546;42.674;23.284;2022-09-09T04:12:33;94942.56;;;25.92;42.82
30819;BME280;17546;42.674;23.284;2022-09-09T04:14:59;94949.59;;;25.91;42.83
30819;BME280;17546;42.674;23.284;2022-09-09T04:17:27;94947.91;;;25.88;43.00
30819;BME280;17546;42.674;23.284;2022-09-09T04:19:52;94940.72;;;25.87;42.82
30819;BME280;17546;42.674;23.284;2022-09-09T04:22:18;94957.75;;;25.87;42.84
30819;BME280;17546;42.674;23.284;2022-09-09T04:24:43;94946.22;;;25.75;43.45
30819;BME280;17546;42.674;23.284;2022-09-09T04:27:09;94946.09;;;25.83;43.15
30819;BME280;17546;42.674;23.284;2022-09-09T04:29:34;94944.75;;;25.84;43.02
30819;BME280;17546;42.674;23.284;2022-09-09T04:32:00;94935.66;;;25.75;43.12
30819;BME280;17546;42.674;23.284;2022-09-09T04:34:26;94955.09;;;25.89;43.14
30819;BME280;17546;42.674;23.284;2022-09-09T04:36:51;94956.59;;;25.90;43.36
30819;BME280;17546;42.674;23.284;2022-09-09T04:39:19;94953.16;;;25.91;42.84
30819;BME280;17546;42.674;23.284;2022-09-09T04:41:45;94966.88;;;25.95;43.04
30819;BME280;17546;42.674;23.284;2022-09-09T04:44:10;94970.34;;;26.03;42.51
30819;BME280;17546;42.674;23.284;2022-09-09T04:46:36;94942.06;;;25.86;42.69
30819;BME280;17546;42.674;23.284;2022-09-09T04:49:01;94943.63;;;26.06;42.42
30819;BME280;17546;42.674;23.284;2022-09-09T04:51:27;94941.22;;;25.93;42.62
30819;BME280;17546;42.674;23.284;2022-09-09T04:53:53;94931.94;;;25.92;42.69
30819;BME280;17546;42.674;23.284;2022-09-09T04:56:19;94936.06;;;25.72;43.26
30819;BME280;17546;42.674;23.284;2022-09-09T04:58:44;94937.44;;;25.81;43.14
30819;BME280;17546;42.674;23.284;2022-09-09T05:01:19;94949.72;;;25.93;43.14
30819;BME280;17546;42.674;23.284;2022-09-09T05:03:45;94943.56;;;25.87;43.75
30819;BME280;17546;42.674;23.284;2022-09-09T05:06:13;94932.13;;;26.04;42.81
30819;BME280;17546;42.674;23.284;2022-09-09T05:08:40;94922.84;;;26.13;42.84
30819;BME280;17546;42.674;23.284;2022-09-09T05:11:23;94920.00;;;26.13;42.78
30819;BME280;17546;42.674;23.284;2022-09-09T05:13:50;94931.22;;;26.11;43.11
30819;BME280;17546;42.674;23.284;2022-09-09T05:16:16;94943.03;;;26.17;43.03
30819;BME280;17546;42.674;23.284;2022-09-09T05:18:43;94942.25;;;26.36;42.27
30819;BME280;17546;42.674;23.284;2022-09-09T05:21:10;94936.59;;;26.66;41.64
30819;BME280;17546;42.674;23.284;2022-09-09T05:23:36;94922.50;;;26.68;41.14
30819;BME280;17546;42.674;23.284;2022-09-09T05:26:02;94921.03;;;26.67;41.20
30819;BME280;17546;42.674;23.284;2022-09-09T05:28:29;94927.63;;;26.59;41.02
30819;BME280;17546;42.674;23.284;2022-09-09T05:33:24;94937.38;;;26.97;40.55
30819;BME280;17546;42.674;23.284;2022-09-09T05:36:17;94932.94;;;26.85;40.36
30819;BME280;17546;42.674;23.284;2022-09-09T05:38:43;94929.25;;;26.63;40.34
30819;BME280;17546;42.674;23.284;2022-09-09T05:41:10;94938.59;;;26.94;40.03
30819;BME280;17546;42.674;23.284;2022-09-09T05:43:37;94933.38;;;26.91;39.98
30819;BME280;17546;42.674;23.284;2022-09-09T05:46:08;94940.47;;;27.11;39.69
30819;BME280;17546;42.674;23.284;2022-09-09T05:48:39;94947.78;;;27.24;39.84
30819;BME280;17546;42.674;23.284;2022-09-09T05:51:06;94949.09;;;27.33;39.62
30819;BME280;17546;42.674;23.284;2022-09-09T05:53:32;94941.16;;;27.31;40.13
30819;BME280;17546;42.674;23.284;2022-09-09T05:56:06;94941.03;;;27.29;40.11
30819;BME280;17546;42.674;23.284;2022-09-09T05:58:33;94941.16;;;27.31;40.05
30819;BME280;17546;42.674;23.284;2022-09-09T06:01:04;94944.63;;;27.30;39.79
30819;BME280;17546;42.674;23.284;2022-09-09T06:03:30;94956.75;;;27.30;39.56
30819;BME280;17546;42.674;23.284;2022-09-09T06:05:59;94954.53;;;27.19;40.16
30819;BME280;17546;42.674;23.284;2022-09-09T06:08:25;94954.25;;;27.05;40.02
30819;BME280;17546;42.674;23.284;2022-09-09T06:10:51;94962.81;;;26.95;40.09
30819;BME280;17546;42.674;23.284;2022-09-09T06:13:17;94960.72;;;27.06;40.54
30819;BME280;17546;42.674;23.284;2022-09-09T06:15:50;94956.34;;;27.05;40.26
30819;BME280;17546;42.674;23.284;2022-09-09T06:18:16;94954.16;;;26.93;39.68
30819;BME280;17546;42.674;23.284;2022-09-09T06:21:03;94956.84;;;26.91;40.20
30819;BME280;17546;42.674;23.284;2022-09-09T06:23:30;94954.19;;;26.74;40.23
30819;BME280;17546;42.674;23.284;2022-09-09T06:26:10;94947.75;;;26.83;40.14
30819;BME280;17546;42.674;23.284;2022-09-09T06:28:36;94957.47;;;26.80;40.09
30819;BME280;17546;42.674;23.284;2022-09-09T06:31:04;94950.56;;;26.83;40.31
30819;BME280;17546;42.674;23.284;2022-09-09T06:33:32;94950.88;;;26.87;39.82
30819;BME280;17546;42.674;23.284;2022-09-09T06:36:00;94948.03;;;26.87;40.17
30819;BME280;17546;42.674;23.284;2022-09-09T06:38:25;94949.97;;;26.94;40.33
30819;BME280;17546;42.674;23.284;2022-09-09T06:40:55;94937.44;;;26.78;39.85
30819;BME280;17546;42.674;23.284;2022-09-09T06:43:22;94941.00;;;26.88;39.99
30819;BME280;17546;42.674;23.284;2022-09-09T06:45:57;94943.94;;;27.10;39.75
30819;BME280;17546;42.674;23.284;2022-09-09T06:48:23;94939.69;;;27.20;39.32
30819;BME280;17546;42.674;23.284;2022-09-09T06:50:51;94944.16;;;27.33;39.35
30819;BME280;17546;42.674;23.284;2022-09-09T06:53:25;94958.53;;;27.35;39.88
30819;BME280;17546;42.674;23.284;2022-09-09T06:55:52;94960.84;;;27.49;39.66
30819;BME280;17546;42.674;23.284;2022-09-09T06:58:20;94960.06;;;27.58;39.36
30819;BME280;17546;42.674;23.284;2022-09-09T07:00:47;94961.97;;;27.65;39.04
30819;BME280;17546;42.674;23.284;2022-09-09T07:03:13;94962.91;;;27.58;39.15
30819;BME280;17546;42.674;23.284;2022-09-09T07:05:38;94954.88;;;27.45;39.05
30819;BME280;17546;42.674;23.284;2022-09-09T07:08:04;94969.59;;;27.41;38.58
30819;BME280;17546;42.674;23.284;2022-09-09T07:10:29;94961.88;;;27.53;38.34
30819;BME280;17546;42.674;23.284;2022-09-09T07:12:55;94955.06;;;27.68;38.99
30819;BME280;17546;42.674;23.284;2022-09-09T07:15:20;94942.88;;;27.77;38.70
30819;BME280;17546;42.674;23.284;2022-09-09T07:17:48;94949.28;;;27.88;38.50
30819;BME280;17546;42.674;23.284;2022-09-09T07:20:13;94954.53;;;27.91;38.74
30819;BME280;17546;42.674;23.284;2022-09-09T07:22:40;94955.00;;;28.09;37.49
30819;BME280;17546;42.674;23.284;2022-09-09T07:25:06;94944.25;;;28.19;37.54
30819;BME280;17546;42.674;23.284;2022-09-09T07:27:31;94943.31;;;28.27;37.63
30819;BME280;17546;42.674;23.284;2022-09-09T07:29:57;94943.81;;;28.35;36.95
30819;BME280;17546;42.674;23.284;2022-09-09T07:32:23;94939.63;;;28.36;37.38
30819;BME280;17546;42.674;23.284;2022-09-09T07:34:48;94938.66;;;28.43;37.61
30819;BME280;17546;42.674;23.284;2022-09-09T07:37:15;94936.50;;;28.53;37.63
30819;BME280;17546;42.674;23.284;2022-09-09T07:39:41;94944.50;;;28.67;36.96
30819;BME280;17546;42.674;23.284;2022-09-09T07:42:07;94940.78;;;28.76;37.24
30819;BME280;17546;42.674;23.284;2022-09-09T07:44:35;94936.31;;;28.73;37.04
30819;BME280;17546;42.674;23.284;2022-09-09T07:47:02;94951.34;;;28.85;36.59
30819;BME280;17546;42.674;23.284;2022-09-09T07:49:28;94948.16;;;29.02;36.27
30819;BME280;17546;42.674;23.284;2022-09-09T07:51:53;94949.63;;;29.03;37.10
30819;BME280;17546;42.674;23.284;2022-09-09T07:54:19;94953.53;;;29.32;36.58
30819;BME280;17546;42.674;23.284;2022-09-09T07:56:46;94957.50;;;29.15;35.85
30819;BME280;17546;42.674;23.284;2022-09-09T07:59:13;94950.16;;;29.00;35.62
30819;BME280;17546;42.674;23.284;2022-09-09T08:01:41;94941.53;;;29.33;35.34
30819;BME280;17546;42.674;23.284;2022-09-09T08:04:10;94945.50;;;29.75;35.07
30819;BME280;17546;42.674;23.284;2022-09-09T08:06:52;94943.25;;;29.38;34.98
30819;BME280;17546;42.674;23.284;2022-09-09T08:09:18;94951.31;;;29.54;34.85
30819;BME280;17546;42.674;23.284;2022-09-09T08:11:44;94937.59;;;30.23;34.79
30819;BME280;17546;42.674;23.284;2022-09-09T08:14:10;94944.31;;;30.53;34.18
30819;BME280;17546;42.674;23.284;2022-09-09T08:16:40;94948.78;;;30.56;34.07
30819;BME280;17546;42.674;23.284;2022-09-09T08:19:06;94939.56;;;30.83;33.33
30819;BME280;17546;42.674;23.284;2022-09-09T08:21:33;94943.66;;;30.92;32.39
30819;BME280;17546;42.674;23.284;2022-09-09T08:24:01;94943.41;;;31.14;33.25
30819;BME280;17546;42.674;23.284;2022-09-09T08:26:29;94944.53;;;31.48;32.07
30819;BME280;17546;42.674;23.284;2022-09-09T08:28:56;94942.53;;;31.64;32.60
30819;BME280;17546;42.674;23.284;2022-09-09T08:34:20;94932.03;;;30.76;32.92
30819;BME280;17546;42.674;23.284;2022-09-09T08:36:47;94940.84;;;31.20;32.21
30819;BME280;17546;42.674;23.284;2022-09-09T08:39:16;94942.53;;;31.50;32.75
30819;BME280;17546;42.674;23.284;2022-09-09T08:52:44;94941.16;;;31.79;32.15
30819;BME280;17546;42.674;23.284;2022-09-09T08:57:57;94940.56;;;32.38;30.93
30819;BME280;17546;42.674;23.284;2022-09-09T09:00:29;94928.00;;;32.59;32.20
30819;BME280;17546;42.674;23.284;2022-09-09T09:03:19;94929.47;;;32.60;31.62
30819;BME280;17546;42.674;23.284;2022-09-09T09:05:57;94929.28;;;32.86;32.74
30819;BME280;17546;42.674;23.284;2022-09-09T09:08:31;94937.97;;;32.88;30.65
30819;BME280;17546;42.674;23.284;2022-09-09T09:10:58;94930.13;;;33.04;30.32
30819;BME280;17546;42.674;23.284;2022-09-09T09:19:00;94922.63;;;32.81;30.69
30819;BME280;17546;42.674;23.284;2022-09-09T09:21:47;94928.06;;;32.91;31.04
30819;BME280;17546;42.674;23.284;2022-09-09T09:24:30;94930.63;;;32.69;30.56
30819;BME280;17546;42.674;23.284;2022-09-09T09:27:13;94926.31;;;32.84;29.95
30819;BME280;17546;42.674;23.284;2022-09-09T09:29:40;94927.03;;;32.68;29.61
30819;BME280;17546;42.674;23.284;2022-09-09T09:32:11;94925.19;;;32.31;30.33
30819;BME280;17546;42.674;23.284;2022-09-09T09:34:39;94916.25;;;32.53;30.42
30819;BME280;17546;42.674;23.284;2022-09-09T09:37:16;94924.25;;;32.70;30.69
30819;BME280;17546;42.674;23.284;2022-09-09T09:39:44;94918.38;;;32.98;31.21
30819;BME280;17546;42.674;23.284;2022-09-09T09:42:12;94912.53;;;32.96;30.23
30819;BME280;17546;42.674;23.284;2022-09-09T09:44:41;94905.06;;;33.05;29.25
30819;BME280;17546;42.674;23.284;2022-09-09T09:47:13;94904.19;;;33.32;30.01
30819;BME280;17546;42.674;23.284;2022-09-09T09:49:51;94904.50;;;32.92;29.78
30819;BME280;17546;42.674;23.284;2022-09-09T09:52:22;94906.44;;;32.88;29.35
30819;BME280;17546;42.674;23.284;2022-09-09T09:54:49;94907.41;;;33.08;30.01
30819;BME280;17546;42.674;23.284;2022-09-09T09:57:16;94903.59;;;33.20;31.29
30819;BME280;17546;42.674;23.284;2022-09-09T09:59:43;94892.31;;;33.08;29.92
30819;BME280;17546;42.674;23.284;2022-09-09T10:02:23;94893.16;;;33.10;29.92
30819;BME280;17546;42.674;23.284;2022-09-09T10:05:15;94900.84;;;33.06;29.53
30819;BME280;17546;42.674;23.284;2022-09-09T10:07:42;94900.66;;;33.18;30.23
30819;BME280;17546;42.674;23.284;2022-09-09T10:10:20;94910.63;;;33.01;29.86
30819;BME280;17546;42.674;23.284;2022-09-09T10:19:15;94914.16;;;33.15;31.92
30819;BME280;17546;42.674;23.284;2022-09-09T10:29:52;94915.78;;;33.04;30.33
30819;BME280;17546;42.674;23.284;2022-09-09T10:38:14;94916.47;;;32.73;31.61
30819;BME280;17546;42.674;23.284;2022-09-09T10:43:44;94921.81;;;32.65;30.59
30819;BME280;17546;42.674;23.284;2022-09-09T10:46:30;94920.28;;;32.48;31.76
30819;BME280;17546;42.674;23.284;2022-09-09T10:57:21;94919.97;;;32.42;31.68
30819;BME280;17546;42.674;23.284;2022-09-09T10:59:52;94910.50;;;32.09;31.67
30819;BME280;17546;42.674;23.284;2022-09-09T11:02:27;94912.25;;;32.30;31.67
30819;BME280;17546;42.674;23.284;2022-09-09T11:05:16;94919.38;;;32.29;31.58
30819;BME280;17546;42.674;23.284;2022-09-09T11:07:57;94912.63;;;32.39;33.01
30819;BME280;17546;42.674;23.284;2022-09-09T11:10:48;94914.44;;;32.46;32.73
30819;BME280;17546;42.674;23.284;2022-09-09T11:13:28;94907.25;;;32.31;32.34
30819;BME280;17546;42.674;23.284;2022-09-09T11:16:24;94908.47;;;32.26;31.89
30819;BME280;17546;42.674;23.284;2022-09-09T11:18:59;94886.78;;;32.23;32.80
30819;BME280;17546;42.674;23.284;2022-09-09T11:21:40;94895.34;;;32.07;33.23
30819;BME280;17546;42.674;23.284;2022-09-09T11:24:38;94894.03;;;32.10;33.25
30819;BME280;17546;42.674;23.284;2022-09-09T11:29:38;94880.91;;;32.05;33.53
30819;BME280;17546;42.674;23.284;2022-09-09T11:40:26;94844.03;;;32.27;33.71
30819;BME280;17546;42.674;23.284;2022-09-09T11:43:11;94850.63;;;32.16;34.52
30819;BME280;17546;42.674;23.284;2022-09-09T11:45:39;94833.84;;;32.53;34.58
30819;BME280;17546;42.674;23.284;2022-09-09T11:48:22;94828.56;;;32.48;34.07
30819;BME280;17546;42.674;23.284;2022-09-09T11:51:07;94813.72;;;32.08;34.45
30819;BME280;17546;42.674;23.284;2022-09-09T11:53:35;94823.91;;;32.41;34.45
30819;BME280;17546;42.674;23.284;2022-09-09T11:56:13;94826.75;;;32.70;34.15
30819;BME280;17546;42.674;23.284;2022-09-09T12:01:43;94828.22;;;32.71;33.46
30819;BME280;17546;42.674;23.284;2022-09-09T12:04:26;94815.84;;;32.83;34.55
30819;BME280;17546;42.674;23.284;2022-09-09T12:07:00;94817.78;;;32.32;34.69
30819;BME280;17546;42.674;23.284;2022-09-09T12:12:21;94801.53;;;32.99;33.03
30819;BME280;17546;42.674;23.284;2022-09-09T12:17:45;94788.19;;;33.55;32.89
30819;BME280;17546;42.674;23.284;2022-09-09T12:28:59;94793.81;;;33.69;32.18
30819;BME280;17546;42.674;23.284;2022-09-09T12:31:37;94795.25;;;34.04;32.88
30819;BME280;17546;42.674;23.284;2022-09-09T12:36:57;94799.03;;;33.23;32.73
30819;BME280;17546;42.674;23.284;2022-09-09T12:41:56;94787.66;;;32.31;32.58
30819;BME280;17546;42.674;23.284;2022-09-09T12:44:23;94779.00;;;33.25;30.98
30819;BME280;17546;42.674;23.284;2022-09-09T12:46:49;94782.41;;;33.37;31.53
30819;BME280;17546;42.674;23.284;2022-09-09T12:49:36;94775.94;;;33.37;31.26
30819;BME280;17546;42.674;23.284;2022-09-09T12:52:27;94781.47;;;33.48;31.21
30819;BME280;17546;42.674;23.284;2022-09-09T12:54:55;94773.00;;;33.19;31.33
30819;BME280;17546;42.674;23.284;2022-09-09T12:57:23;94766.53;;;33.02;32.14
30819;BME280;17546;42.674;23.284;2022-09-09T12:59:51;94770.50;;;33.11;31.88
30819;BME280;17546;42.674;23.284;2022-09-09T13:04:44;94761.72;;;33.23;32.26
30819;BME280;17546;42.674;23.284;2022-09-09T13:07:12;94755.53;;;32.81;32.12
30819;BME280;17546;42.674;23.284;2022-09-09T13:09:39;94749.25;;;32.68;32.96
30819;BME280;17546;42.674;23.284;2022-09-09T13:12:06;94747.31;;;32.57;33.13
30819;BME280;17546;42.674;23.284;2022-09-09T13:14:38;94746.91;;;32.81;32.61
30819;BME280;17546;42.674;23.284;2022-09-09T13:17:05;94751.56;;;32.88;32.80
30819;BME280;17546;42.674;23.284;2022-09-09T13:19:45;94746.00;;;32.76;33.13
30819;BME280;17546;42.674;23.284;2022-09-09T13:22:35;94739.59;;;33.09;32.90
30819;BME280;17546;42.674;23.284;2022-09-09T13:28:00;94730.91;;;32.44;32.85
30819;BME280;17546;42.674;23.284;2022-09-09T13:30:29;94718.56;;;32.55;32.78
30819;BME280;17546;42.674;23.284;2022-09-09T13:36:07;94733.59;;;32.87;32.84
30819;BME280;17546;42.674;23.284;2022-09-09T13:38:57;94723.25;;;33.12;32.30
30819;BME280;17546;42.674;23.284;2022-09-09T13:41:24;94726.94;;;33.14;33.05
30819;BME280;17546;42.674;23.284;2022-09-09T13:43:51;94718.25;;;32.97;32.55
30819;BME280;17546;42.674;23.284;2022-09-09T13:54:05;94707.88;;;33.39;32.71
30819;BME280;17546;42.674;23.284;2022-09-09T13:56:35;94712.22;;;33.40;32.14
30819;BME280;17546;42.674;23.284;2022-09-09T13:59:03;94708.59;;;33.40;32.44
30819;BME280;17546;42.674;23.284;2022-09-09T14:01:29;94706.91;;;33.50;32.10
30819;BME280;17546;42.674;23.284;2022-09-09T14:03:55;94711.81;;;33.30;32.32
30819;BME280;17546;42.674;23.284;2022-09-09T14:06:21;94709.63;;;33.12;32.16
30819;BME280;17546;42.674;23.284;2022-09-09T14:08:47;94709.44;;;33.42;31.84
30819;BME280;17546;42.674;23.284;2022-09-09T14:11:13;94701.16;;;33.50;32.03
30819;BME280;17546;42.674;23.284;2022-09-09T14:13:39;94704.16;;;33.70;31.95
30819;BME280;17546;42.674;23.284;2022-09-09T14:16:04;94695.63;;;33.72;31.87
30819;BME280;17546;42.674;23.284;2022-09-09T14:18:30;94694.91;;;33.72;31.48
30819;BME280;17546;42.674;23.284;2022-09-09T14:20:55;94693.31;;;33.69;32.32
30819;BME280;17546;42.674;23.284;2022-09-09T14:23:22;94689.47;;;33.62;32.16
30819;BME280;17546;42.674;23.284;2022-09-09T14:25:50;94695.47;;;33.68;32.52
30819;BME280;17546;42.674;23.284;2022-09-09T14:28:16;94698.25;;;33.66;32.46
30819;BME280;17546;42.674;23.284;2022-09-09T14:30:42;94702.78;;;33.71;34.14
30819;BME280;17546;42.674;23.284;2022-09-09T14:33:13;94710.97;;;33.79;32.74
30819;BME280;17546;42.674;23.284;2022-09-09T14:35:39;94703.59;;;33.74;32.62
30819;BME280;17546;42.674;23.284;2022-09-09T14:38:07;94699.91;;;33.71;32.59
30819;BME280;17546;42.674;23.284;2022-09-09T14:40:37;94697.34;;;33.62;32.29
30819;BME280;17546;42.674;23.284;2022-09-09T14:43:06;94694.59;;;33.48;32.66
30819;BME280;17546;42.674;23.284;2022-09-09T14:45:35;94699.78;;;33.51;32.51
30819;BME280;17546;42.674;23.284;2022-09-09T14:48:04;94695.34;;;33.48;32.49
30819;BME280;17546;42.674;23.284;2022-09-09T14:50:30;94690.22;;;33.63;33.10
30819;BME280;17546;42.674;23.284;2022-09-09T14:52:55;94685.56;;;33.55;32.33
30819;BME280;17546;42.674;23.284;2022-09-09T14:55:21;94687.91;;;33.59;32.35
30819;BME280;17546;42.674;23.284;2022-09-09T14:57:46;94678.13;;;33.48;32.55
30819;BME280;17546;42.674;23.284;2022-09-09T15:00:12;94702.47;;;33.47;32.30
30819;BME280;17546;42.674;23.284;2022-09-09T15:02:38;94702.03;;;33.37;32.09
30819;BME280;17546;42.674;23.284;2022-09-09T15:05:05;94717.22;;;33.40;31.88
30819;BME280;17546;42.674;23.284;2022-09-09T15:07:30;94711.34;;;33.20;32.13
30819;BME280;17546;42.674;23.284;2022-09-09T15:09:57;94718.41;;;33.17;32.27
30819;BME280;17546;42.674;23.284;2022-09-09T15:12:23;94716.66;;;33.09;32.81
30819;BME280;17546;42.674;23.284;2022-09-09T15:14:49;94725.63;;;33.18;32.12
30819;BME280;17546;42.674;23.284;2022-09-09T15:17:15;94721.00;;;33.10;32.81
30819;BME280;17546;42.674;23.284;2022-09-09T15:19:41;94718.97;;;33.13;33.43
30819;BME280;17546;42.674;23.284;2022-09-09T15:22:08;94719.50;;;33.09;33.41
30819;BME280;17546;42.674;23.284;2022-09-09T15:24:34;94719.59;;;33.11;33.09
30819;BME280;17546;42.674;23.284;2022-09-09T15:27:00;94718.22;;;33.12;33.31
30819;BME280;17546;42.674;23.284;2022-09-09T15:29:32;94722.66;;;33.16;32.93
30819;BME280;17546;42.674;23.284;2022-09-09T15:31:58;94713.97;;;33.13;33.17
30819;BME280;17546;42.674;23.284;2022-09-09T15:34:23;94713.97;;;33.13;33.19
30819;BME280;17546;42.674;23.284;2022-09-09T15:36:49;94712.59;;;33.14;32.62